KPRX/PRX METAR and TAF weather

Enter ICAO airport designator
Station Type Date Time Source
KPRX METAR 2018/12/13 20:37 UTC NOAA

KPRX 132037Z AUTO 11011KT 10SM FEW013 BKN047 OVC055 16/14 A2966 RMK AO2


Station Type Date Time Source
KPRX Decoded METAR 2018/12/13 20:37 UTC NOAA

Paris / Cox Field, TX, United States (KPRX) 33-38N 095-27W
Dec 13, 2018 - 03:37 PM EST / 2018.12.13 2037 UTC
Wind: from the ESE (110 degrees) at 13 MPH (11 KT):0
Visibility: 10 mile(s):0
Sky conditions: overcast
Temperature: 60 F (16 C)
Dew Point: 57 F (14 C)
Relative Humidity: 87%
Pressure (altimeter): 29.66 in. Hg (1004 hPa)
ob: KPRX 132037Z AUTO 11011KT 10SM FEW013 BKN047 OVC055 16/14 A2966 RMK AO2
cycle: 20

Station Type Date Time Source
KPRX TAF UTC NOAA

Error!


Example: see airport list